Pineland, FL

8:12 AM EDT on September 03, 2015 (GMT -0400)
Bokeelia-Canoe Trail | | Change Station
CLOSE
Current Station
Personal Weather Station
Location: Bokeelia, FL
Elevation: 23 ft
Nearby Weather Stations

Elev 23 ft 26.64 °N, 82.13 °W | Updated 8 minutes ago

Partly Cloudy
Partly Cloudy
83.1 °F
Feels Like 97 °F
N
0.0
Wind Variable Wind from North

Today
High -- | Low -- °F
--% Chance of Precip.
Yesterday
High -- | Low -- °F
Precip. -- in
7:08 AM 7:46 PM
Waning Gibbous, 71% visible
Pressure 29.99 in
Visibility 10.0 miles
Clouds Clear
Heat Index 97 °F
Dew Point 81 °F
Humidity 94%
Rainfall 0.00 in
Snow Depth Not available.
UV 1 out of 12
Pollen 4.20 out of 12
Air Quality Not available.
Flu Activity Not available.
METAR KFMY 031153Z 00000KT 10SM CLR 28/24 A2999 RMK AO2 SLP156 T02780239 10278 20261 51010
Pressure 29.99 in
Visibility 10.0 miles
Clouds Clear
Heat Index 97 °F
Dew Point 81 °F
Humidity 94%
Rainfall 0.00 in
Snow Depth Not available.
UV 1 out of 12
Pollen 4.20 out of 12
Air Quality Not available.
Flu Activity Not available.
METAR KFMY 031153Z 00000KT 10SM CLR 28/24 A2999 RMK AO2 SLP156 T02780239 10278 20261 51010

10-Day Weather Forecast

×

Almanac

Astronomy

Sep. 03, 2015 Rise Set
Actual Time
Civil Twilight
Nautical Twilight
Astronomical Twilight
Moon
Length of Visible Light
Length of Day
Tomorrow will be .
, % of the Moon is Illuminated

Today's Extremes

State Highs State Lows

Community

WunderPhotos

Upload Photos

1,851,943 photos uploaded!

WunderBlogs® & News

Nearby

Air Quality

  Air Quality AQ Index Pollutant
Not available.

Snow Depth

Station Depth Elevation

Earthquake Activity

City Distance Mag. Time & Date
Minimum magnitude displayed is 2.5.

Coastal Water Temperatures

Place Temperature

Stations

Nearby Weather Stations

Station Location Temp. Windchill Dew Point Humidity Wind Precip. Elev Updated Type